Lovell Field
KCHA : now visible

Airfield :











YOU CAN JOIN US ON...

 
LOGIN :

Register | Disclaimer

   EN    FR    IT 

 









Legend :    VFR   Marginal VFR   IFR   Intensive IFR   Very Intensive IFR
Visi :
Ceiling :
>= 8 km
>= 3000ft
5 to 8 km
1000 to 3000 ft
1500m to 5 km
500 to 1000 ft
800 to 1500m
200 to 500 ft
< 800m
< 200 ft
Symbols :   Thunderstorms  Fog  Heavy snow  Heavy precipitations  Wind > 20 kt






- Airport Elevation : 683 ft
- IATA code : CHA


KCHA - Lovell Field

CURRENT METAR :
  • 280453Z 15003KT 10SM BKN065 BKN080 19/18 A2999 RMK AO2 SLP150 T01890183 402440189 $

EXPIRED METARs :
  • 280353Z 23003KT 10SM BKN080 BKN250 19/18 A2999 RMK AO2 SLP148 LAST T01940178 $
  • 280253Z 00000KT 10SM FEW010 SCT120 BKN210 OVC250 19/18 A2998 RMK AO2 RAE43 TSE10 SLP147 P0021 60033 T01940183 50011 $
  • 280218Z VRB06KT 3SM RA BR SCT040 BKN070 OVC085 20/18 A2998 RMK AO2 TSE10 P0015 T02000183 $
  • 280210Z 27007KT 2 1/2SM RA BR FEW012 SCT029 OVC042 20/19 A2999 RMK AO2 TSE10 LTG DSNT SE AND NW TS MOV N CB DSNT SE AND NW P0012 T02000189 $

TAF KCHA
Valid from the 28 at 02:00 until the 29 at 00:00 UTC


280206Z 2802/2824 21012KT 5SM -TSRA BR SCT015 BKN030CB
TEMPO 2802/2803 2SM TSRA BR BKN015CB
FM280330 VRB03KT P6SM VCSH SCT010 BKN030
FM280500 VRB03KT 6SM BR VCSH OVC024
FM280900 15003KT 6SM BR BKN015
FM281400 20006KT P6SM VCSH SCT020 BKN040
FM281700 20010KT P6SM SCT045 SCT100
KZTL FIR / North America



MET'MAP, your aeronautical weather chart ! - Copyright ORBIFLY December 2007 - Disclaimer

ORBIFLY MET'MAP TEAM :

Programming & Development : Alexandra Zaïnal
Concept & original design : Baudouin d'Aumeries
Assistance for programming : Marc-Olivier Méhu
Technical & hardware support : Manuel Goepfert

Contact : metmap@orbifly.com




SOURCES & CREDITS :

   NOAA       Earth
Advisory